createdAt,value
2018-10-05T00:00:51.340Z,1.80
2018-10-05T00:01:51.353Z,2.10
2018-10-05T00:02:51.318Z,2.10
2018-10-05T00:03:51.315Z,1.90
2018-10-05T00:04:51.303Z,1.90
2018-10-05T00:05:51.308Z,2.20
2018-10-05T00:06:51.274Z,1.90
2018-10-05T00:07:51.286Z,2.20
2018-10-05T00:08:51.274Z,2.20
2018-10-05T00:09:51.239Z,2.00
2018-10-05T00:10:51.230Z,1.90
2018-10-05T00:11:51.217Z,1.90
2018-10-05T00:12:51.306Z,2.30
2018-10-05T00:13:51.218Z,2.20
2018-10-05T00:14:51.187Z,1.80
2018-10-05T00:15:51.172Z,1.80
2018-10-05T00:16:51.160Z,2.10
2018-10-05T00:17:51.154Z,2.00
2018-10-05T00:18:51.162Z,2.10
2018-10-05T00:19:51.157Z,2.10
2018-10-05T00:20:51.141Z,2.20
2018-10-05T00:21:51.104Z,1.90
2018-10-05T00:22:51.139Z,1.80
2018-10-05T00:23:51.083Z,2.00
2018-10-05T00:24:51.096Z,1.90
2018-10-05T00:25:51.070Z,2.10
2018-10-05T00:26:51.050Z,1.90
2018-10-05T00:27:51.078Z,2.10
2018-10-05T00:28:51.026Z,1.90
2018-10-05T00:29:51.016Z,1.90
2018-10-05T00:30:51.005Z,2.40
2018-10-05T00:31:50.993Z,1.90
2018-10-05T00:32:51.006Z,2.10
2018-10-05T00:33:50.971Z,2.00
2018-10-05T00:34:50.979Z,1.90
2018-10-05T00:35:50.957Z,1.80
2018-10-05T00:36:50.940Z,2.00
2018-10-05T00:37:50.977Z,1.70
2018-10-05T00:38:57.846Z,2.10
2018-10-05T00:39:50.963Z,1.70
2018-10-05T00:40:50.899Z,2.20
2018-10-05T00:41:50.881Z,1.80
2018-10-05T00:42:50.911Z,2.10
2018-10-05T00:43:50.882Z,1.80
2018-10-05T00:44:50.850Z,1.80
2018-10-05T00:45:50.834Z,1.90
2018-10-05T00:46:50.824Z,1.80
2018-10-05T00:47:50.839Z,1.80
2018-10-05T00:48:50.804Z,1.90
2018-10-05T00:49:50.817Z,1.90
2018-10-05T00:50:50.846Z,1.90
2018-10-05T00:51:50.772Z,2.20
2018-10-05T00:52:50.760Z,2.00
2018-10-05T00:53:50.746Z,2.20
2018-10-05T00:54:50.736Z,1.80
2018-10-05T00:55:50.752Z,1.90
2018-10-05T00:56:50.714Z,1.70
2018-10-05T00:57:50.702Z,2.00
2018-10-05T00:58:50.716Z,1.80
2018-10-05T00:59:50.680Z,2.10
2018-10-05T01:00:50.668Z,1.90
2018-10-05T01:01:50.752Z,1.70
2018-10-05T01:02:50.680Z,1.90
2018-10-05T01:03:50.646Z,1.70
2018-10-05T01:04:50.626Z,1.80
2018-10-05T01:05:50.612Z,2.80
2018-10-05T01:06:50.601Z,2.00
2018-10-05T01:07:50.615Z,1.90
2018-10-05T01:08:50.579Z,1.90
2018-10-05T01:09:50.577Z,1.90
2018-10-05T01:10:50.558Z,1.70
2018-10-05T01:11:50.545Z,1.90
2018-10-05T01:12:50.558Z,2.00
2018-10-05T01:13:50.569Z,1.90
2018-10-05T01:14:50.512Z,1.80
2018-10-05T01:15:50.500Z,2.00
2018-10-05T01:16:50.492Z,2.00
2018-10-05T01:17:50.504Z,1.80
2018-10-05T01:18:50.468Z,1.80
2018-10-05T01:19:50.481Z,1.80
2018-10-05T01:20:50.445Z,1.80
2018-10-05T01:21:50.435Z,2.00
2018-10-05T01:22:50.451Z,1.70
2018-10-05T01:23:50.415Z,1.70
2018-10-05T01:24:50.523Z,1.90
2018-10-05T01:25:50.414Z,2.10
2018-10-05T01:26:50.380Z,1.80
2018-10-05T01:27:50.371Z,1.70
2018-10-05T01:28:50.395Z,1.90
2018-10-05T01:29:50.348Z,1.80
2018-10-05T01:30:50.361Z,2.10
2018-10-05T01:31:50.322Z,1.60
2018-10-05T01:32:50.312Z,1.80
2018-10-05T01:33:50.301Z,1.80
2018-10-05T01:34:50.382Z,2.00
2018-10-05T01:35:50.280Z,1.70
2018-10-05T01:36:50.270Z,1.80
2018-10-05T01:37:50.256Z,1.60
2018-10-05T01:38:50.287Z,2.00
2018-10-05T01:39:50.266Z,2.00
2018-10-05T01:40:50.231Z,1.80
2018-10-05T01:41:50.212Z,1.60
2018-10-05T01:42:50.199Z,1.70
2018-10-05T01:43:50.191Z,1.70
2018-10-05T01:44:50.203Z,1.70
2018-10-05T01:45:50.170Z,1.60
2018-10-05T01:46:50.155Z,2.10
2018-10-05T01:47:50.289Z,1.90
2018-10-05T01:48:50.138Z,2.10
2018-10-05T01:49:50.123Z,1.80
2018-10-05T01:50:50.110Z,1.70
2018-10-05T01:51:50.100Z,1.80
2018-10-05T01:52:50.133Z,1.70
2018-10-05T01:53:50.078Z,1.70
2018-10-05T01:54:50.066Z,1.90
2018-10-05T01:55:50.055Z,1.90
2018-10-05T01:56:50.044Z,1.70
2018-10-05T01:57:50.065Z,2.00
2018-10-05T01:58:50.051Z,1.70
2018-10-05T01:59:50.011Z,1.60
2018-10-05T02:00:50.024Z,1.80
2018-10-05T02:01:49.989Z,1.80
2018-10-05T02:02:50.001Z,1.70
2018-10-05T02:03:49.996Z,1.80
2018-10-05T02:04:49.959Z,1.70
2018-10-05T02:05:50.095Z,1.60
2018-10-05T02:06:49.936Z,1.60
2018-10-05T02:07:49.920Z,1.90
2018-10-05T02:08:49.937Z,1.80
2018-10-05T02:09:49.923Z,1.80
2018-10-05T02:10:49.886Z,1.70
2018-10-05T02:11:49.875Z,1.70
2018-10-05T02:12:49.865Z,1.80
2018-10-05T02:13:49.854Z,1.70
2018-10-05T02:14:49.868Z,1.70
2018-10-05T02:15:49.830Z,1.80
2018-10-05T02:16:49.845Z,1.70
2018-10-05T02:17:49.809Z,1.90
2018-10-05T02:18:49.799Z,1.60
2018-10-05T02:19:49.787Z,1.80
2018-10-05T02:20:49.775Z,1.70
2018-10-05T02:21:49.809Z,1.80
2018-10-05T02:22:49.752Z,1.80
2018-10-05T02:23:49.772Z,1.80
2018-10-05T02:24:49.734Z,1.70
2018-10-05T02:25:49.722Z,1.70
2018-10-05T02:26:49.734Z,1.80
2018-10-05T02:27:49.716Z,2.10
2018-10-05T02:28:49.687Z,1.70
2018-10-05T02:29:49.685Z,1.70
2018-10-05T02:30:49.664Z,1.60
2018-10-05T02:31:49.684Z,1.80
2018-10-05T02:32:49.665Z,1.80
2018-10-05T02:33:49.630Z,1.80
2018-10-05T02:34:49.630Z,1.80
2018-10-05T02:35:49.657Z,2.10
2018-10-05T02:36:49.603Z,1.60
2018-10-05T02:37:49.584Z,1.90
2018-10-05T02:38:49.595Z,1.90
2018-10-05T02:39:49.586Z,1.60
2018-10-05T02:40:49.567Z,1.80
2018-10-05T02:41:49.619Z,1.80
2018-10-05T02:42:49.529Z,1.60
2018-10-05T02:43:49.518Z,1.50
2018-10-05T02:44:49.550Z,1.70
2018-10-05T02:45:49.495Z,1.60
2018-10-05T02:46:49.508Z,1.50
2018-10-05T02:47:49.473Z,1.80
2018-10-05T02:48:49.462Z,1.70
2018-10-05T02:49:49.450Z,1.80
2018-10-05T02:50:49.441Z,1.60
2018-10-05T02:51:49.519Z,1.90
2018-10-05T02:52:49.418Z,2.00
2018-10-05T02:53:49.405Z,1.80
2018-10-05T02:54:49.398Z,1.80
2018-10-05T02:55:49.383Z,1.80
2018-10-05T02:56:49.406Z,1.60
2018-10-05T02:57:49.361Z,1.70
2018-10-05T02:58:49.350Z,1.60
2018-10-05T02:59:49.342Z,1.70
2018-10-05T03:00:49.331Z,1.70
2018-10-05T03:01:49.338Z,1.70
2018-10-05T03:02:49.306Z,1.70
2018-10-05T03:03:49.295Z,1.60
2018-10-05T03:04:49.307Z,1.70
2018-10-05T03:05:49.271Z,1.80
2018-10-05T03:06:49.264Z,1.70
2018-10-05T03:07:49.249Z,1.70
2018-10-05T03:08:49.237Z,1.50
2018-10-05T03:09:49.250Z,1.60
2018-10-05T03:10:49.216Z,1.70
2018-10-05T03:11:49.206Z,1.50
2018-10-05T03:12:49.195Z,1.70
2018-10-05T03:13:49.184Z,1.60
2018-10-05T03:14:49.194Z,1.50
2018-10-05T03:15:49.159Z,1.80
2018-10-05T03:16:49.154Z,1.90
2018-10-05T03:17:49.146Z,1.70
2018-10-05T03:18:49.125Z,1.70
2018-10-05T03:19:49.261Z,1.90
2018-10-05T03:20:49.107Z,1.50
2018-10-05T03:21:49.091Z,1.90
2018-10-05T03:22:49.080Z,1.50
2018-10-05T03:23:49.078Z,1.70
2018-10-05T03:24:49.083Z,1.80
2018-10-05T03:25:49.048Z,1.70
2018-10-05T03:26:49.036Z,1.80
2018-10-05T03:27:49.072Z,1.70
2018-10-05T03:28:49.014Z,1.70
2018-10-05T03:29:49.026Z,1.60
2018-10-05T03:30:48.991Z,1.50
2018-10-05T03:31:49.013Z,1.60
2018-10-05T03:32:48.968Z,1.50
2018-10-05T03:33:48.958Z,1.50
2018-10-05T03:34:48.969Z,1.60
2018-10-05T03:35:48.935Z,1.70
2018-10-05T03:36:48.927Z,1.60
2018-10-05T03:37:48.913Z,1.70
2018-10-05T03:38:48.903Z,1.80
2018-10-05T03:39:48.970Z,2.10
2018-10-05T03:40:48.880Z,1.70
2018-10-05T03:41:48.893Z,1.70
2018-10-05T03:42:48.857Z,1.50
2018-10-05T03:43:48.845Z,1.70
2018-10-05T03:44:48.859Z,1.70
2018-10-05T03:45:48.825Z,1.70
2018-10-05T03:46:48.812Z,1.50
2018-10-05T03:47:48.802Z,1.40
2018-10-05T03:48:48.791Z,1.50
2018-10-05T03:49:48.808Z,1.70
2018-10-05T03:50:48.767Z,1.40
2018-10-05T03:51:48.757Z,1.70
2018-10-05T03:52:48.812Z,1.70
2018-10-05T03:53:48.759Z,1.60
2018-10-05T03:54:48.746Z,1.60
2018-10-05T03:55:48.713Z,1.70
2018-10-05T03:56:48.701Z,1.70
2018-10-05T03:57:48.696Z,1.60
2018-10-05T03:58:48.679Z,1.60
2018-10-05T03:59:48.693Z,1.70
2018-10-05T04:00:48.656Z,1.70
2018-10-05T04:01:48.644Z,1.60
2018-10-05T04:02:48.634Z,1.50
2018-10-05T04:03:48.626Z,1.60
2018-10-05T04:04:48.700Z,1.60
2018-10-05T04:05:48.632Z,1.40
2018-10-05T04:06:48.597Z,1.70
2018-10-05T04:07:48.576Z,1.40
2018-10-05T04:08:48.565Z,1.60
2018-10-05T04:09:48.556Z,1.40
2018-10-05T04:10:48.586Z,1.60
2018-10-05T04:11:48.533Z,1.60
2018-10-05T04:12:48.523Z,1.60
2018-10-05T04:13:48.543Z,1.70
2018-10-05T04:14:48.498Z,1.50
2018-10-05T04:15:48.519Z,1.80
2018-10-05T04:16:48.512Z,1.60
2018-10-05T04:17:48.470Z,1.50
2018-10-05T04:18:48.627Z,1.60
2018-10-05T04:19:48.451Z,1.60
2018-10-05T04:20:48.561Z,1.50
2018-10-05T04:21:48.420Z,1.50
2018-10-05T04:22:48.410Z,1.40
2018-10-05T04:23:48.398Z,1.60
2018-10-05T04:24:48.390Z,1.50
2018-10-05T04:25:48.408Z,1.50
2018-10-05T04:26:48.365Z,1.50
2018-10-05T04:27:48.353Z,1.60
2018-10-05T04:28:48.357Z,1.50
2018-10-05T04:29:48.340Z,1.50
2018-10-05T04:30:48.360Z,1.60
2018-10-05T04:31:48.308Z,1.50
2018-10-05T04:32:48.299Z,1.60
2018-10-05T04:33:48.291Z,1.60
2018-10-05T04:34:48.274Z,1.50
2018-10-05T04:35:48.416Z,1.60
2018-10-05T04:36:48.271Z,1.60
2018-10-05T04:37:48.243Z,1.80
2018-10-05T04:38:48.256Z,1.50
2018-10-05T04:39:48.221Z,1.50
2018-10-05T04:40:48.208Z,1.70
2018-10-05T04:41:48.241Z,1.50
2018-10-05T04:42:48.188Z,1.50
2018-10-05T04:43:48.176Z,1.40
2018-10-05T04:44:48.163Z,1.60
2018-10-05T04:45:48.153Z,1.50
2018-10-05T04:46:48.172Z,1.80
2018-10-05T04:47:48.142Z,1.60
2018-10-05T04:48:48.124Z,1.40
2018-10-05T04:49:48.110Z,1.30
2018-10-05T04:50:48.100Z,2.10
2018-10-05T04:51:48.109Z,1.60
2018-10-05T04:52:48.074Z,1.50
2018-10-05T04:53:48.064Z,1.60
2018-10-05T04:54:48.052Z,1.40
2018-10-05T04:55:48.064Z,1.60
2018-10-05T04:56:48.039Z,1.50
2018-10-05T04:57:48.019Z,1.50
2018-10-05T04:58:48.006Z,1.50
2018-10-05T04:59:48.020Z,1.60
2018-10-05T05:00:48.031Z,2.00
2018-10-05T05:01:47.973Z,1.50
2018-10-05T05:02:47.964Z,1.60
2018-10-05T05:03:47.950Z,1.50
2018-10-05T05:04:47.964Z,1.30
2018-10-05T05:05:47.930Z,1.40
2018-10-05T05:06:47.917Z,1.70
2018-10-05T05:07:47.908Z,1.70
2018-10-05T05:08:47.895Z,1.50
2018-10-05T05:09:47.909Z,1.30
2018-10-05T05:10:47.873Z,1.50
2018-10-05T05:11:47.860Z,1.30
2018-10-05T05:12:47.876Z,1.30
2018-10-05T05:13:47.839Z,1.60
2018-10-05T05:14:47.839Z,1.60
2018-10-05T05:15:47.830Z,1.40
2018-10-05T05:16:47.839Z,1.50
2018-10-05T05:17:47.813Z,1.40
2018-10-05T05:18:47.784Z,1.40
2018-10-05T05:19:47.813Z,1.60
2018-10-05T05:20:47.786Z,1.40
2018-10-05T05:21:47.750Z,1.80
2018-10-05T05:22:47.738Z,1.40
2018-10-05T05:23:47.730Z,1.60
2018-10-05T05:24:47.717Z,1.30
2018-10-05T05:25:47.734Z,1.50
2018-10-05T05:26:47.694Z,1.30
2018-10-05T05:27:47.708Z,1.50
2018-10-05T05:28:47.673Z,1.30
2018-10-05T05:29:47.660Z,1.50
2018-10-05T05:30:47.649Z,1.40
2018-10-05T05:31:47.677Z,1.60
2018-10-05T05:32:47.648Z,2.40
2018-10-05T05:33:47.681Z,1.30
2018-10-05T05:34:47.628Z,1.40
2018-10-05T05:35:47.686Z,1.40
2018-10-05T05:36:47.584Z,1.50
2018-10-05T05:37:47.594Z,1.60
2018-10-05T05:38:47.563Z,1.50
2018-10-05T05:39:47.547Z,1.50
2018-10-05T05:40:47.569Z,1.40
2018-10-05T05:41:47.526Z,1.30
2018-10-05T05:42:47.559Z,1.20
2018-10-05T05:43:47.510Z,1.80
2018-10-05T05:44:47.508Z,1.40
2018-10-05T05:45:47.505Z,1.50
2018-10-05T05:46:47.541Z,1.50
2018-10-05T05:47:47.484Z,1.60
2018-10-05T05:48:47.449Z,1.40
2018-10-05T05:49:47.460Z,1.50
2018-10-05T05:50:47.428Z,1.70
2018-10-05T05:51:47.414Z,2.00
2018-10-05T05:52:47.468Z,2.60
2018-10-05T05:53:47.404Z,2.60
2018-10-05T05:54:47.380Z,1.70
2018-10-05T05:55:47.369Z,1.90
2018-10-05T05:56:47.397Z,2.00
2018-10-05T05:57:47.348Z,2.20
2018-10-05T05:58:47.351Z,3.00
2018-10-05T05:59:47.324Z,1.70
2018-10-05T06:00:47.316Z,2.00
2018-10-05T06:01:47.326Z,2.50
2018-10-05T06:02:47.327Z,3.00
2018-10-05T06:03:47.282Z,2.40
2018-10-05T06:04:47.273Z,2.70
2018-10-05T06:05:47.297Z,3.40
2018-10-05T06:06:47.248Z,4.00
2018-10-05T06:07:47.271Z,2.60
2018-10-05T06:08:47.225Z,2.10
2018-10-05T06:09:47.253Z,2.10
2018-10-05T06:10:47.401Z,3.30
2018-10-05T06:11:47.192Z,3.70
2018-10-05T06:12:47.181Z,3.50
2018-10-05T06:13:47.174Z,2.70
2018-10-05T06:14:47.200Z,3.60
2018-10-05T06:15:47.183Z,2.50
2018-10-05T06:16:47.174Z,4.50
2018-10-05T06:17:47.151Z,3.00
2018-10-05T06:18:47.115Z,2.20
2018-10-05T06:19:47.132Z,3.40
2018-10-05T06:20:47.093Z,2.40
2018-10-05T06:21:47.224Z,2.80
2018-10-05T06:22:47.115Z,1.80
2018-10-05T06:23:47.070Z,2.70
2018-10-05T06:24:47.048Z,3.20
2018-10-05T06:25:47.091Z,4.90
2018-10-05T06:26:47.030Z,4.80
2018-10-05T06:27:47.060Z,2.20
2018-10-05T06:28:47.209Z,2.60
2018-10-05T06:29:46.991Z,3.60
2018-10-05T06:30:47.043Z,4.20
2018-10-05T06:31:46.972Z,5.80
2018-10-05T06:32:46.990Z,2.80
2018-10-05T06:33:46.959Z,3.90
2018-10-05T06:34:46.942Z,4.10
2018-10-05T06:35:46.930Z,3.90
2018-10-05T06:36:46.916Z,3.50
2018-10-05T06:37:47.010Z,3.50
2018-10-05T06:38:46.893Z,3.20
2018-10-05T06:39:46.886Z,3.10
2018-10-05T06:40:46.870Z,3.70
2018-10-05T06:41:46.904Z,2.60
2018-10-05T06:42:46.847Z,4.00
2018-10-05T06:43:46.850Z,3.80
2018-10-05T06:44:46.825Z,3.90
2018-10-05T06:45:46.812Z,2.60
2018-10-05T06:46:46.842Z,3.60
2018-10-05T06:47:46.792Z,2.90
2018-10-05T06:48:47.319Z,4.60
2018-10-05T06:49:46.831Z,4.20
2018-10-05T06:50:46.769Z,4.50
2018-10-05T06:51:46.777Z,2.80
2018-10-05T06:52:46.736Z,4.30
2018-10-05T06:53:46.723Z,3.30
2018-10-05T06:54:46.716Z,4.80
2018-10-05T06:55:46.734Z,4.00
2018-10-05T06:56:46.713Z,2.20
2018-10-05T06:57:46.681Z,3.50
2018-10-05T06:58:46.700Z,3.10
2018-10-05T06:59:46.656Z,2.90
2018-10-05T07:00:46.645Z,3.00
2018-10-05T07:01:46.716Z,4.20
2018-10-05T07:02:46.658Z,3.30
2018-10-05T07:03:46.640Z,3.00
2018-10-05T07:04:46.598Z,4.30
2018-10-05T07:05:46.589Z,3.30
2018-10-05T07:06:46.590Z,4.40
2018-10-05T07:07:46.732Z,3.90
2018-10-05T07:08:46.679Z,4.20
2018-10-05T07:09:46.546Z,3.50
2018-10-05T07:10:46.538Z,3.70
2018-10-05T07:11:46.533Z,3.70
2018-10-05T07:12:46.514Z,2.50
2018-10-05T07:13:46.533Z,2.90
2018-10-05T07:14:46.509Z,3.10
2018-10-05T07:15:46.487Z,3.20
2018-10-05T07:16:46.467Z,3.20
2018-10-05T07:17:46.457Z,5.70
2018-10-05T07:18:46.467Z,3.30
2018-10-05T07:19:46.434Z,2.20
2018-10-05T07:20:46.420Z,3.50
2018-10-05T07:21:46.435Z,3.40
2018-10-05T07:22:46.398Z,3.50
2018-10-05T07:23:46.481Z,4.80
2018-10-05T07:24:46.378Z,3.20
2018-10-05T07:25:46.366Z,4.70
2018-10-05T07:26:46.381Z,3.00
2018-10-05T07:27:46.342Z,5.80
2018-10-05T07:28:46.393Z,2.40
2018-10-05T07:29:46.339Z,4.10
2018-10-05T07:30:46.309Z,4.60
2018-10-05T07:31:46.322Z,4.00
2018-10-05T07:32:46.287Z,5.10
2018-10-05T07:33:46.275Z,7.00
2018-10-05T07:34:46.264Z,3.20
2018-10-05T07:35:46.260Z,2.90
2018-10-05T07:36:46.289Z,3.30
2018-10-05T07:37:46.233Z,2.60
2018-10-05T07:38:46.220Z,4.30
2018-10-05T07:39:46.209Z,2.10
2018-10-05T07:40:46.201Z,8.00
2018-10-05T07:41:46.409Z,2.70
2018-10-05T07:42:46.174Z,3.10
2018-10-05T07:43:46.165Z,5.20
2018-10-05T07:44:46.200Z,4.40
2018-10-05T07:45:46.139Z,3.70
2018-10-05T07:46:46.155Z,3.50
2018-10-05T07:47:46.143Z,4.90
2018-10-05T07:48:46.108Z,4.00
2018-10-05T07:49:46.129Z,2.90
2018-10-05T07:50:46.141Z,3.00
2018-10-05T07:51:46.148Z,2.90
2018-10-05T07:52:46.088Z,2.50
2018-10-05T07:53:46.050Z,3.00
2018-10-05T07:54:46.082Z,4.90
2018-10-05T07:55:46.028Z,3.50
2018-10-05T07:56:46.018Z,3.40
2018-10-05T07:57:46.095Z,5.30
2018-10-05T07:58:45.996Z,3.20
2018-10-05T07:59:45.985Z,4.30
2018-10-05T08:00:46.144Z,3.70
2018-10-05T08:01:45.972Z,4.80
2018-10-05T08:02:45.977Z,4.10
2018-10-05T08:03:45.995Z,4.00
2018-10-05T08:04:45.982Z,2.70
2018-10-05T08:05:45.919Z,3.30
2018-10-05T08:06:45.908Z,5.00
2018-10-05T08:07:45.896Z,4.20
2018-10-05T08:08:45.930Z,3.60
2018-10-05T08:09:45.876Z,4.00
2018-10-05T08:10:45.864Z,3.00
2018-10-05T08:11:45.856Z,4.60
2018-10-05T08:12:45.862Z,4.00
2018-10-05T08:13:45.830Z,5.50
2018-10-05T08:14:45.827Z,4.20
2018-10-05T08:15:45.806Z,4.90
2018-10-05T08:16:45.796Z,4.00
2018-10-05T08:17:45.923Z,4.90
2018-10-05T08:18:45.776Z,3.30
2018-10-05T08:19:45.762Z,4.30
2018-10-05T08:20:45.756Z,4.70
2018-10-05T08:21:45.746Z,4.60
2018-10-05T08:22:45.786Z,4.20
2018-10-05T08:23:45.722Z,7.00
2018-10-05T08:24:45.707Z,3.50
2018-10-05T08:25:45.696Z,4.50
2018-10-05T08:26:45.688Z,3.50
2018-10-05T08:27:45.702Z,3.70
2018-10-05T08:28:45.664Z,3.20
2018-10-05T08:29:45.649Z,3.00
2018-10-05T08:30:45.670Z,5.30
2018-10-05T08:31:45.628Z,3.20
2018-10-05T08:32:45.615Z,4.90
2018-10-05T08:33:45.608Z,5.60
2018-10-05T08:34:45.593Z,4.40
2018-10-05T08:35:45.607Z,5.90
2018-10-05T08:36:45.573Z,4.40
2018-10-05T08:37:45.560Z,4.80
2018-10-05T08:38:45.550Z,5.20
2018-10-05T08:39:45.585Z,5.70
2018-10-05T08:40:45.737Z,4.80
2018-10-05T08:41:45.517Z,3.90
2018-10-05T08:42:45.505Z,3.50
2018-10-05T08:43:45.523Z,4.20
2018-10-05T08:44:45.595Z,5.50
2018-10-05T08:45:45.540Z,4.80
2018-10-05T08:46:45.464Z,4.50
2018-10-05T08:47:45.454Z,4.70
2018-10-05T08:48:45.506Z,4.70
2018-10-05T08:49:45.427Z,6.40
2018-10-05T08:50:45.426Z,4.30
2018-10-05T08:51:45.459Z,5.80
2018-10-05T08:52:45.394Z,4.70
2018-10-05T08:53:45.416Z,4.10
2018-10-05T08:54:45.372Z,3.90
2018-10-05T08:55:45.359Z,5.30
2018-10-05T08:56:45.372Z,7.90
2018-10-05T08:57:45.339Z,5.40
2018-10-05T08:58:45.361Z,4.20
2018-10-05T08:59:45.318Z,3.60
2018-10-05T09:00:45.305Z,4.50
2018-10-05T09:01:45.335Z,7.50
2018-10-05T09:02:45.282Z,4.60
2018-10-05T09:03:45.271Z,6.00
2018-10-05T09:04:45.260Z,3.90
2018-10-05T09:05:45.311Z,5.00
2018-10-05T09:06:45.239Z,5.30
2018-10-05T09:07:45.252Z,3.40
2018-10-05T09:08:45.215Z,3.60
2018-10-05T09:09:45.296Z,5.20
2018-10-05T09:10:45.201Z,6.10
2018-10-05T09:11:45.181Z,3.30
2018-10-05T09:12:45.214Z,4.30
2018-10-05T09:13:45.159Z,4.80
2018-10-05T09:14:45.149Z,3.10
2018-10-05T09:15:45.140Z,4.50
2018-10-05T09:16:45.306Z,3.10
2018-10-05T09:17:45.185Z,6.00
2018-10-05T09:18:45.124Z,3.60
2018-10-05T09:19:45.120Z,4.30
2018-10-05T09:20:45.092Z,5.50
2018-10-05T09:21:45.098Z,9.40
2018-10-05T09:22:45.058Z,4.50
2018-10-05T09:23:45.047Z,4.60
2018-10-05T09:24:45.073Z,5.20
2018-10-05T09:25:45.061Z,6.90
2018-10-05T09:26:45.014Z,4.10
2018-10-05T09:27:45.017Z,4.70
2018-10-05T09:28:45.004Z,4.50
2018-10-05T09:29:44.996Z,3.60
2018-10-05T09:30:45.122Z,6.00
2018-10-05T09:31:44.959Z,5.50
2018-10-05T09:32:44.951Z,4.30
2018-10-05T09:33:44.936Z,3.80
2018-10-05T09:34:44.925Z,4.20
2018-10-05T09:35:44.941Z,6.60
2018-10-05T09:36:44.971Z,4.50
2018-10-05T09:37:44.940Z,4.70
2018-10-05T09:38:44.878Z,4.50
2018-10-05T09:39:44.871Z,7.20
2018-10-05T09:40:44.861Z,4.10
2018-10-05T09:41:44.883Z,4.90
2018-10-05T09:42:44.839Z,5.10
2018-10-05T09:43:44.892Z,3.20
2018-10-05T09:44:44.835Z,4.50
2018-10-05T09:45:44.842Z,5.90
2018-10-05T09:46:44.834Z,4.40
2018-10-05T09:47:44.829Z,4.00
2018-10-05T09:48:44.768Z,4.30
2018-10-05T09:49:44.758Z,3.90
2018-10-05T09:50:44.749Z,4.10
2018-10-05T09:51:44.816Z,3.20
2018-10-05T09:52:44.771Z,3.40
2018-10-05T09:53:44.733Z,9.60
2018-10-05T09:54:44.766Z,6.40
2018-10-05T09:55:44.734Z,4.80
2018-10-05T09:56:44.684Z,4.20
2018-10-05T09:57:44.668Z,4.70
2018-10-05T09:58:44.658Z,3.10
2018-10-05T09:59:45.056Z,4.30
2018-10-05T10:00:44.638Z,3.90
2018-10-05T10:01:44.624Z,4.00
2018-10-05T10:02:44.618Z,5.20
2018-10-05T10:03:44.641Z,4.10
2018-10-05T10:04:44.596Z,4.50
2018-10-05T10:05:44.579Z,4.90
2018-10-05T10:06:44.597Z,6.80
2018-10-05T10:07:44.564Z,3.50
2018-10-05T10:08:44.548Z,3.70
2018-10-05T10:09:44.539Z,5.40
2018-10-05T10:10:44.558Z,6.50
2018-10-05T10:11:44.513Z,2.70
2018-10-05T10:12:44.501Z,3.50
2018-10-05T10:13:44.572Z,3.70
2018-10-05T10:14:44.483Z,5.10
2018-10-05T10:15:44.493Z,5.50
2018-10-05T10:16:44.463Z,4.10
2018-10-05T10:17:44.502Z,3.00
2018-10-05T10:18:44.436Z,5.40
2018-10-05T10:19:44.435Z,5.70
2018-10-05T10:20:44.646Z,7.80
2018-10-05T10:21:44.421Z,4.80
2018-10-05T10:22:44.535Z,4.90
2018-10-05T10:23:44.512Z,7.50
2018-10-05T10:24:44.370Z,6.20
2018-10-05T10:25:44.389Z,4.40
2018-10-05T10:26:44.371Z,4.90
2018-10-05T10:27:44.434Z,4.40
2018-10-05T10:28:44.494Z,3.10
2018-10-05T10:29:44.352Z,5.20
2018-10-05T10:30:44.307Z,5.10
2018-10-05T10:31:44.289Z,7.80
2018-10-05T10:32:44.328Z,5.20
2018-10-05T10:33:44.350Z,3.90
2018-10-05T10:34:44.298Z,5.30
2018-10-05T10:35:44.297Z,3.60
2018-10-05T10:36:44.379Z,4.80
2018-10-05T10:37:44.254Z,4.60
2018-10-05T10:38:44.212Z,5.20
2018-10-05T10:39:44.238Z,4.10
2018-10-05T10:40:44.246Z,4.90
2018-10-05T10:41:44.179Z,4.40
2018-10-05T10:42:44.294Z,5.50
2018-10-05T10:43:44.159Z,5.30
2018-10-05T10:44:44.144Z,5.00
2018-10-05T10:45:44.157Z,3.70
2018-10-05T10:46:44.123Z,4.60
2018-10-05T10:47:44.112Z,3.50
2018-10-05T10:48:44.139Z,3.90
2018-10-05T10:49:44.100Z,5.70
2018-10-05T10:50:44.085Z,4.30
2018-10-05T10:51:44.067Z,4.80
2018-10-05T10:52:44.057Z,2.60
2018-10-05T10:53:44.076Z,3.80
2018-10-05T10:54:44.035Z,4.60
2018-10-05T10:55:44.024Z,2.80
2018-10-05T10:56:44.015Z,3.20
2018-10-05T10:57:44.003Z,4.50
2018-10-05T10:58:44.186Z,4.00
2018-10-05T10:59:43.984Z,5.40
2018-10-05T11:00:44.002Z,3.80
2018-10-05T11:01:43.956Z,5.30
2018-10-05T11:02:43.947Z,3.40
2018-10-05T11:03:43.965Z,3.30
2018-10-05T11:04:43.931Z,3.90
2018-10-05T11:05:43.915Z,5.90
2018-10-05T11:06:43.907Z,4.80
2018-10-05T11:07:43.896Z,5.30
2018-10-05T11:08:43.906Z,7.10
2018-10-05T11:09:43.880Z,5.50
2018-10-05T11:10:43.859Z,2.60
2018-10-05T11:11:43.846Z,7.30
2018-10-05T11:12:43.833Z,4.30
2018-10-05T11:13:43.856Z,6.80
2018-10-05T11:14:43.874Z,2.80
2018-10-05T11:15:43.968Z,5.30
2018-10-05T11:16:43.792Z,4.90
2018-10-05T11:17:43.786Z,4.40
2018-10-05T11:18:43.810Z,5.10
2018-10-05T11:19:43.760Z,4.60
2018-10-05T11:20:43.745Z,3.50
2018-10-05T11:21:43.737Z,3.20
2018-10-05T11:22:43.725Z,6.70
2018-10-05T11:23:43.739Z,5.60
2018-10-05T11:24:43.706Z,6.30
2018-10-05T11:25:43.846Z,6.00
2018-10-05T11:26:43.678Z,4.30
2018-10-05T11:27:43.670Z,4.00
2018-10-05T11:28:43.658Z,5.60
2018-10-05T11:29:43.728Z,4.50
2018-10-05T11:30:43.680Z,4.30
2018-10-05T11:31:43.629Z,5.10
2018-10-05T11:32:44.481Z,4.20
2018-10-05T11:33:43.625Z,5.40
2018-10-05T11:34:44.076Z,4.00
2018-10-05T11:35:43.580Z,6.70
2018-10-05T11:36:43.575Z,4.30
2018-10-05T11:37:43.565Z,4.80
2018-10-05T11:38:43.572Z,3.60
2018-10-05T11:39:43.534Z,5.60
2018-10-05T11:40:43.539Z,3.20
2018-10-05T11:41:43.540Z,6.60
2018-10-05T11:42:43.503Z,4.20
2018-10-05T11:43:43.506Z,4.30
2018-10-05T11:44:43.524Z,6.20
2018-10-05T11:45:43.470Z,3.10
2018-10-05T11:46:43.489Z,2.70
2018-10-05T11:47:43.446Z,4.10
2018-10-05T11:48:43.437Z,3.90
2018-10-05T11:49:43.432Z,5.00
2018-10-05T11:50:43.444Z,3.60
2018-10-05T11:51:43.406Z,3.30
2018-10-05T11:52:43.390Z,3.50
2018-10-05T11:53:43.382Z,3.50
2018-10-05T11:54:43.368Z,4.30
2018-10-05T11:55:43.383Z,3.30
2018-10-05T11:56:43.348Z,4.30
2018-10-05T11:57:43.338Z,4.10
2018-10-05T11:58:43.347Z,2.50
2018-10-05T11:59:43.331Z,4.00
2018-10-05T12:00:43.303Z,3.20
2018-10-05T12:01:43.316Z,4.30
2018-10-05T12:02:43.279Z,3.50
2018-10-05T12:03:43.291Z,2.90
2018-10-05T12:04:43.256Z,3.40
2018-10-05T12:05:43.259Z,5.30
2018-10-05T12:06:43.237Z,5.80
2018-10-05T12:07:43.224Z,3.10
2018-10-05T12:08:43.237Z,4.00
2018-10-05T12:09:43.240Z,5.00
2018-10-05T12:10:43.196Z,2.70
2018-10-05T12:11:43.177Z,3.00
2018-10-05T12:12:43.202Z,3.20
2018-10-05T12:13:43.226Z,2.90
2018-10-05T12:14:43.171Z,3.20
2018-10-05T12:15:43.192Z,4.80
2018-10-05T12:16:43.984Z,4.30
2018-10-05T12:17:43.991Z,2.90
2018-10-05T12:18:44.490Z,2.70
2018-10-05T12:19:44.009Z,3.00
2018-10-05T12:20:43.077Z,3.60
2018-10-05T12:21:43.067Z,3.60
2018-10-05T12:22:43.059Z,3.30
2018-10-05T12:23:43.077Z,3.50
2018-10-05T12:24:43.039Z,2.50
2018-10-05T12:25:43.050Z,2.30
2018-10-05T12:26:43.089Z,2.30
2018-10-05T12:27:43.001Z,3.00
2018-10-05T12:28:42.993Z,3.20
2018-10-05T12:29:43.032Z,3.00
2018-10-05T12:30:42.993Z,3.00
2018-10-05T12:31:42.955Z,2.40
2018-10-05T12:32:42.946Z,2.90
2018-10-05T12:33:42.937Z,3.90
2018-10-05T12:34:42.921Z,3.10
2018-10-05T12:35:42.946Z,3.00
2018-10-05T12:36:42.904Z,2.50
2018-10-05T12:37:42.893Z,3.40
2018-10-05T12:38:42.884Z,3.60
2018-10-05T12:39:42.874Z,2.40
2018-10-05T12:40:42.901Z,2.60
2018-10-05T12:41:42.882Z,3.40
2018-10-05T12:42:42.863Z,4.00
2018-10-05T12:43:42.823Z,3.00
2018-10-05T12:44:42.853Z,2.40
2018-10-05T12:45:42.828Z,3.20
2018-10-05T12:46:42.787Z,4.00
2018-10-05T12:47:42.776Z,3.30
2018-10-05T12:48:42.776Z,3.30
2018-10-05T12:49:42.781Z,3.00
2018-10-05T12:50:42.753Z,3.00
2018-10-05T12:51:42.731Z,2.00
2018-10-05T12:52:42.738Z,2.90
2018-10-05T12:53:42.713Z,5.00
2018-10-05T12:54:42.765Z,5.00
2018-10-05T12:55:42.704Z,5.10
2018-10-05T12:56:42.677Z,3.10
2018-10-05T12:57:42.670Z,2.30
2018-10-05T12:58:42.729Z,2.20
2018-10-05T12:59:42.710Z,3.50
2018-10-05T13:00:42.729Z,3.30
2018-10-05T13:01:42.754Z,5.10
2018-10-05T13:02:42.692Z,3.10
2018-10-05T13:03:42.614Z,4.80
2018-10-05T13:04:42.652Z,3.50
2018-10-05T13:05:42.574Z,4.80
2018-10-05T13:06:42.591Z,6.00
2018-10-05T13:07:42.554Z,3.80
2018-10-05T13:08:42.544Z,4.30
2018-10-05T13:09:42.561Z,3.70
2018-10-05T13:10:42.546Z,5.20
2018-10-05T13:11:42.538Z,4.30
2018-10-05T13:12:42.497Z,4.00
2018-10-05T13:13:42.493Z,6.60
2018-10-05T13:14:42.474Z,4.00
2018-10-05T13:15:42.472Z,3.00
2018-10-05T13:16:42.480Z,4.80
2018-10-05T13:17:42.441Z,5.10
2018-10-05T13:18:42.444Z,3.40